Fidelio — SLKR — position and weather

sailwx.info

Track history (hours):
 
Tides and Currents Weather Stations Pressure Air Temp Water Temp Dewpoint Dewpoint Depression Visibility Wind Speed Wind Dir Waves Ship Positions

Fidelio

Last reported at 2017-Dec-16 18:00 UTC. Time now 2017-Dec-18 01:26 UTC.
Position N 51°48' E 159°24'.

Length 228 m; draft 8 m.

Type: Cargo ship. MMSI: 266261000.

Wind from 070 at 12 knots

Barometer 1003.4 mb
Air temperature -6.0 ° C
Visibility: greater than 10.8 NM
Water temperature 3.6 ° C

Date/timePositionNaut miles runAvg speedWind from/ knotsBaromVisibWave heightAir tempDewpointWater temp
2017-Dec-16 18:00N 51°48' E 159°24'21618.0 070 / 121003.410.8 -6.0 3.6
2017-Dec-16 06:00N 52°54' E 165°00'19716.4 270 / 191006.810.8 -2.0 4.4
2017-Dec-15 18:00N 53°48' E 170°18'22518.7 040 / 14993.7 5.4 1.8 4.6
2017-Dec-15 06:00N 54°24' E 176°36'22018.3 050 / 19976.0 5.4 3.3 5.3
2017-Dec-14 18:00N 54°42' W 177°06'22518.8 140 / 15980.910.8 2.9 5.5
2017-Dec-14 06:00N 54°42' W 170°36'23519.6 140 / 18999.810.8 0.8 5.8
2017-Dec-13 18:00N 56°18' W 164°18'26321.9 350 / 32995.710.8 2.8 7.1
2017-Dec-13 06:00N 53°54' W 157°54'20417.0 180 / 14993.210.8 4.5 6.1
2017-Dec-12 18:00N 53°30' W 152°12'16613.8 190 / 20999.3 5.4 5.2 6.2
2017-Dec-12 06:00N 52°54' W 147°42'18415.3 170 / 26996.0 5.4 6.8 6.3
2017-Dec-11 18:00N 52°12' W 142°48'62016.0 150 / 181007.3 5.4 6.9 7.2
2017-Dec-10 03:11N 49°02' W 127°18'617.6
2017-Dec-10 02:52N 48°60' W 127°10'717.6
2017-Dec-10 02:29N 48°58' W 127°00'817.6
2017-Dec-10 02:01N 48°55' W 126°48'917.5
2017-Dec-10 01:30N 48°52' W 126°36'917.9
2017-Dec-10 01:00N 48°49' W 126°23'918.3
2017-Dec-10 00:30N 48°46' W 126°10'918.6
2017-Dec-10 00:01N 48°42' W 125°57'1019.3
2017-Dec-09 23:30N 48°39' W 125°43'1019.8
2017-Dec-09 23:00N 48°35' W 125°29'1020.0
2017-Dec-09 22:31N 48°33' W 125°15'1019.8
2017-Dec-09 22:00N 48°31' W 124°60'1019.8
2017-Dec-09 21:30N 48°31' W 124°45'1020.3
2017-Dec-09 21:00N 48°27' W 124°31'1020.8
2017-Dec-09 20:30N 48°23' W 124°16'1020.5
2017-Dec-09 20:00N 48°19' W 124°02'1020.4
2017-Dec-09 19:30N 48°17' W 123°47'918.9
2017-Dec-09 19:00N 48°15' W 123°33'815.0
2017-Dec-09 18:30N 48°11' W 123°24'4 8.8
2017-Dec-09 18:00N 48°10' W 123°17'917.2
2017-Dec-09 17:30N 48°13' W 123°05'918.3
2017-Dec-09 17:00N 48°12' W 122°51'815.5
2017-Dec-09 16:30N 48°08' W 122°41'815.7
2017-Dec-09 16:00N 48°01' W 122°37'816.3
2017-Dec-09 15:30N 47°55' W 122°28'918.0
2017-Dec-09 15:00N 47°46' W 122°26'816.3
2017-Dec-09 14:30N 47°38' W 122°27'714.2
2017-Dec-09 14:01N 47°31' W 122°25'713.1
2017-Dec-09 13:31N 47°25' W 122°22'510.5
2017-Dec-09 13:01N 47°20' W 122°26'3 6.4
2017-Dec-09 12:30N 47°17' W 122°25'2 3.3
2017-Dec-09 11:59N 47°16' W 122°23'0 0.0
2017-Dec-09 08:21N 47°16' W 122°23'0 0.0
2017-Dec-09 07:57N 47°16' W 122°23'0 0.0
2017-Dec-09 05:21N 47°16' W 122°23'0 0.0
2017-Dec-09 04:57N 47°16' W 122°23'0 0.0
2017-Dec-09 01:57N 47°16' W 122°23'0 0.0
2017-Dec-09 01:21N 47°16' W 122°23'0 0.0
2017-Dec-09 00:57N 47°16' W 122°23'0 0.0
2017-Dec-09 00:27N 47°16' W 122°23'0 0.5
2017-Dec-08 23:58N 47°15' W 122°23'1 2.7
2017-Dec-08 23:27N 47°16' W 122°24'3 6.8
2017-Dec-08 23:00N 47°18' W 122°28'714.1
2017-Dec-08 22:30N 47°24' W 122°22'918.6
2017-Dec-08 22:01N 47°33' W 122°27'918.4
2017-Dec-08 21:30N 47°42' W 122°28'918.3
2017-Dec-08 21:00N 47°51' W 122°28'816.6
2017-Dec-08 20:30N 47°58' W 122°36'916.7
2017-Dec-08 19:58N 48°06' W 122°40'816.7
2017-Dec-08 19:30N 48°11' W 122°50'917.5
2017-Dec-08 19:00N 48°12' W 123°03'815.8
2017-Dec-08 18:30N 48°11' W 123°15'612.4
2017-Dec-08 18:01N 48°10' W 123°24'713.1
2017-Dec-08 17:31N 48°13' W 123°32'815.9
2017-Dec-08 17:00N 48°13' W 123°44'817.0
2017-Dec-08 16:30N 48°14' W 123°57'917.4
2017-Dec-08 16:01N 48°18' W 124°08'918.0
2017-Dec-08 15:30N 48°21' W 124°21'817.0
2017-Dec-08 15:01N 48°25' W 124°32'816.9
2017-Dec-08 14:31N 48°29' W 124°44'815.6
2017-Dec-08 14:00N 48°29' W 124°56'713.3
2017-Dec-08 13:30N 48°24' W 125°04'816.4
2017-Dec-08 13:01N 48°17' W 125°08'815.3
2017-Dec-08 12:31N 48°10' W 125°11'3 6.3
2017-Dec-08 12:00N 48°07' W 125°13'816.1
2017-Dec-08 11:31N 47°59' W 125°16'816.5
2017-Dec-08 11:01N 47°51' W 125°19'917.1
2017-Dec-08 10:31N 47°42' W 125°19'917.1
2017-Dec-08 10:01N 47°34' W 125°18'816.8
2017-Dec-08 09:30N 47°25' W 125°18'916.5
2017-Dec-08 08:59N 47°17' W 125°17'916.5
2017-Dec-08 08:28N 47°08' W 125°16'716.4
2017-Dec-08 08:01N 47°01' W 125°16'816.2
2017-Dec-08 07:30N 46°53' W 125°15'816.4
2017-Dec-08 07:01N 46°44' W 125°14'816.2
2017-Dec-08 06:31N 46°36' W 125°13'816.4
2017-Dec-08 06:01N 46°28' W 125°13'816.3
2017-Dec-08 05:31N 46°20' W 125°12'816.0
2017-Dec-08 05:01N 46°12' W 125°11'816.1
2017-Dec-08 04:31N 46°04' W 125°11'816.1
2017-Dec-08 04:00N 45°56' W 125°10'816.3
2017-Dec-08 03:30N 45°48' W 125°10'816.6
2017-Dec-08 03:00N 45°40' W 125°09'816.7
2017-Dec-08 02:30N 45°31' W 125°08'816.7
2017-Dec-08 02:00N 45°23' W 125°08'816.8
2017-Dec-08 01:30N 45°15' W 125°07'816.7
2017-Dec-08 01:00N 45°06' W 125°06'816.9
2017-Dec-08 00:30N 44°58' W 125°05'816.6
2017-Dec-08 00:00N 44°50' W 125°05'816.5
2017-Dec-07 23:31N 44°41' W 125°04'917.1
2017-Dec-07 23:00N 44°33' W 125°03'917.7
2017-Dec-07 22:30N 44°24' W 125°03'31718.6
2017-Dec-07 05:30N 39°08' W 124°25'918.9
2017-Dec-07 05:01N 38°59' W 124°23'918.8
2017-Dec-07 04:31N 38°50' W 124°18'1019.1
2017-Dec-07 04:01N 38°41' W 124°14'1019.2
2017-Dec-07 03:31N 38°32' W 124°10'1019.5
2017-Dec-07 03:01N 38°23' W 124°06'1019.6
2017-Dec-07 02:31N 38°14' W 124°02'1019.3
2017-Dec-07 02:01N 38°05' W 123°58'1019.3
2017-Dec-07 01:31N 37°55' W 123°54'918.9
2017-Dec-07 01:01N 37°47' W 123°50'918.8
2017-Dec-07 00:31N 37°39' W 123°43'1019.4
2017-Dec-07 00:01N 37°30' W 123°37'1019.5
2017-Dec-06 23:31N 37°22' W 123°30'1019.2
2017-Dec-06 23:00N 37°14' W 123°24'919.0
2017-Dec-06 22:31N 37°06' W 123°18'918.8
2017-Dec-06 22:01N 36°58' W 123°12'918.8
2017-Dec-06 21:31N 36°50' W 123°05'918.6
2017-Dec-06 21:01N 36°42' W 122°59'  
Track history (hours):
 
Tides and Currents Weather Stations Pressure Air Temp Water Temp Dewpoint Dewpoint Depression Visibility Wind Speed Wind Dir Waves Ship Positions

Fidelio

Last reported at 2017-Dec-16 18:00 UTC. Time now 2017-Dec-18 01:26 UTC.
Position N 51°48' E 159°24'.

Length 228 m; draft 8 m.

Type: Cargo ship. MMSI: 266261000.

Wind from 070 at 12 knots

Barometer 1003.4 mb
Air temperature -6.0 ° C
Visibility: greater than 10.8 NM
Water temperature 3.6 ° C

Date/timePositionNaut miles runAvg speedWind from/ knotsBaromVisibWave heightAir tempDewpointWater temp
2017-Dec-16 18:00N 51°48' E 159°24'21618.0 070 / 121003.410.8 -6.0 3.6
2017-Dec-16 06:00N 52°54' E 165°00'19716.4 270 / 191006.810.8 -2.0 4.4
2017-Dec-15 18:00N 53°48' E 170°18'22518.7 040 / 14993.7 5.4 1.8 4.6
2017-Dec-15 06:00N 54°24' E 176°36'22018.3 050 / 19976.0 5.4 3.3 5.3
2017-Dec-14 18:00N 54°42' W 177°06'22518.8 140 / 15980.910.8 2.9 5.5
2017-Dec-14 06:00N 54°42' W 170°36'23519.6 140 / 18999.810.8 0.8 5.8
2017-Dec-13 18:00N 56°18' W 164°18'26321.9 350 / 32995.710.8 2.8 7.1
2017-Dec-13 06:00N 53°54' W 157°54'20417.0 180 / 14993.210.8 4.5 6.1
2017-Dec-12 18:00N 53°30' W 152°12'16613.8 190 / 20999.3 5.4 5.2 6.2
2017-Dec-12 06:00N 52°54' W 147°42'18415.3 170 / 26996.0 5.4 6.8 6.3
2017-Dec-11 18:00N 52°12' W 142°48'62016.0 150 / 181007.3 5.4 6.9 7.2
2017-Dec-10 03:11N 49°02' W 127°18'617.6
2017-Dec-10 02:52N 48°60' W 127°10'717.6
2017-Dec-10 02:29N 48°58' W 127°00'817.6
2017-Dec-10 02:01N 48°55' W 126°48'917.5
2017-Dec-10 01:30N 48°52' W 126°36'917.9
2017-Dec-10 01:00N 48°49' W 126°23'918.3
2017-Dec-10 00:30N 48°46' W 126°10'918.6
2017-Dec-10 00:01N 48°42' W 125°57'1019.3
2017-Dec-09 23:30N 48°39' W 125°43'1019.8
2017-Dec-09 23:00N 48°35' W 125°29'1020.0
2017-Dec-09 22:31N 48°33' W 125°15'1019.8
2017-Dec-09 22:00N 48°31' W 124°60'1019.8
2017-Dec-09 21:30N 48°31' W 124°45'1020.3
2017-Dec-09 21:00N 48°27' W 124°31'1020.8
2017-Dec-09 20:30N 48°23' W 124°16'1020.5
2017-Dec-09 20:00N 48°19' W 124°02'1020.4
2017-Dec-09 19:30N 48°17' W 123°47'918.9
2017-Dec-09 19:00N 48°15' W 123°33'815.0
2017-Dec-09 18:30N 48°11' W 123°24'4 8.8
2017-Dec-09 18:00N 48°10' W 123°17'917.2
2017-Dec-09 17:30N 48°13' W 123°05'918.3
2017-Dec-09 17:00N 48°12' W 122°51'815.5
2017-Dec-09 16:30N 48°08' W 122°41'815.7
2017-Dec-09 16:00N 48°01' W 122°37'816.3
2017-Dec-09 15:30N 47°55' W 122°28'918.0
2017-Dec-09 15:00N 47°46' W 122°26'816.3
2017-Dec-09 14:30N 47°38' W 122°27'714.2
2017-Dec-09 14:01N 47°31' W 122°25'713.1
2017-Dec-09 13:31N 47°25' W 122°22'510.5
2017-Dec-09 13:01N 47°20' W 122°26'3 6.4
2017-Dec-09 12:30N 47°17' W 122°25'2 3.3
2017-Dec-09 11:59N 47°16' W 122°23'0 0.0
2017-Dec-09 08:21N 47°16' W 122°23'0 0.0
2017-Dec-09 07:57N 47°16' W 122°23'0 0.0
2017-Dec-09 05:21N 47°16' W 122°23'0 0.0
2017-Dec-09 04:57N 47°16' W 122°23'0 0.0
2017-Dec-09 01:57N 47°16' W 122°23'0 0.0
2017-Dec-09 01:21N 47°16' W 122°23'0 0.0
2017-Dec-09 00:57N 47°16' W 122°23'0 0.0
2017-Dec-09 00:27N 47°16' W 122°23'0 0.5
2017-Dec-08 23:58N 47°15' W 122°23'1 2.7
2017-Dec-08 23:27N 47°16' W 122°24'3 6.8
2017-Dec-08 23:00N 47°18' W 122°28'714.1
2017-Dec-08 22:30N 47°24' W 122°22'918.6
2017-Dec-08 22:01N 47°33' W 122°27'918.4
2017-Dec-08 21:30N 47°42' W 122°28'918.3
2017-Dec-08 21:00N 47°51' W 122°28'816.6
2017-Dec-08 20:30N 47°58' W 122°36'916.7
2017-Dec-08 19:58N 48°06' W 122°40'816.7
2017-Dec-08 19:30N 48°11' W 122°50'917.5
2017-Dec-08 19:00N 48°12' W 123°03'815.8
2017-Dec-08 18:30N 48°11' W 123°15'612.4
2017-Dec-08 18:01N 48°10' W 123°24'713.1
2017-Dec-08 17:31N 48°13' W 123°32'815.9
2017-Dec-08 17:00N 48°13' W 123°44'817.0
2017-Dec-08 16:30N 48°14' W 123°57'917.4
2017-Dec-08 16:01N 48°18' W 124°08'918.0
2017-Dec-08 15:30N 48°21' W 124°21'817.0
2017-Dec-08 15:01N 48°25' W 124°32'816.9
2017-Dec-08 14:31N 48°29' W 124°44'815.6
2017-Dec-08 14:00N 48°29' W 124°56'713.3
2017-Dec-08 13:30N 48°24' W 125°04'816.4
2017-Dec-08 13:01N 48°17' W 125°08'815.3
2017-Dec-08 12:31N 48°10' W 125°11'3 6.3
2017-Dec-08 12:00N 48°07' W 125°13'816.1
2017-Dec-08 11:31N 47°59' W 125°16'816.5
2017-Dec-08 11:01N 47°51' W 125°19'917.1
2017-Dec-08 10:31N 47°42' W 125°19'917.1
2017-Dec-08 10:01N 47°34' W 125°18'816.8
2017-Dec-08 09:30N 47°25' W 125°18'916.5
2017-Dec-08 08:59N 47°17' W 125°17'916.5
2017-Dec-08 08:28N 47°08' W 125°16'716.4
2017-Dec-08 08:01N 47°01' W 125°16'816.2
2017-Dec-08 07:30N 46°53' W 125°15'816.4
2017-Dec-08 07:01N 46°44' W 125°14'816.2
2017-Dec-08 06:31N 46°36' W 125°13'816.4
2017-Dec-08 06:01N 46°28' W 125°13'816.3
2017-Dec-08 05:31N 46°20' W 125°12'816.0
2017-Dec-08 05:01N 46°12' W 125°11'816.1
2017-Dec-08 04:31N 46°04' W 125°11'816.1
2017-Dec-08 04:00N 45°56' W 125°10'816.3
2017-Dec-08 03:30N 45°48' W 125°10'816.6
2017-Dec-08 03:00N 45°40' W 125°09'816.7
2017-Dec-08 02:30N 45°31' W 125°08'816.7
2017-Dec-08 02:00N 45°23' W 125°08'816.8
2017-Dec-08 01:30N 45°15' W 125°07'816.7
2017-Dec-08 01:00N 45°06' W 125°06'816.9
2017-Dec-08 00:30N 44°58' W 125°05'816.6
2017-Dec-08 00:00N 44°50' W 125°05'816.5
2017-Dec-07 23:31N 44°41' W 125°04'917.1
2017-Dec-07 23:00N 44°33' W 125°03'917.7
2017-Dec-07 22:30N 44°24' W 125°03'31718.6
2017-Dec-07 05:30N 39°08' W 124°25'918.9
2017-Dec-07 05:01N 38°59' W 124°23'918.8
2017-Dec-07 04:31N 38°50' W 124°18'1019.1
2017-Dec-07 04:01N 38°41' W 124°14'1019.2
2017-Dec-07 03:31N 38°32' W 124°10'1019.5
2017-Dec-07 03:01N 38°23' W 124°06'1019.6
2017-Dec-07 02:31N 38°14' W 124°02'1019.3
2017-Dec-07 02:01N 38°05' W 123°58'1019.3
2017-Dec-07 01:31N 37°55' W 123°54'918.9
2017-Dec-07 01:01N 37°47' W 123°50'918.8
2017-Dec-07 00:31N 37°39' W 123°43'1019.4
2017-Dec-07 00:01N 37°30' W 123°37'1019.5
2017-Dec-06 23:31N 37°22' W 123°30'1019.2
2017-Dec-06 23:00N 37°14' W 123°24'919.0
2017-Dec-06 22:31N 37°06' W 123°18'918.8
2017-Dec-06 22:01N 36°58' W 123°12'918.8
2017-Dec-06 21:31N 36°50' W 123°05'918.6
2017-Dec-06 21:01N 36°42' W 122°59'  

Dump ship's entire track history